<?xml version="1.0" encoding="UTF-8" standalone="no" ?>
<gpx xmlns="http://www.topografix.com/GPX/1/1" xmlns:xsi="http://www.w3.org/2001/XMLSchema-instance" xsi:schemaLocation="http://www.topografix.com/GPX/1/1 http://www.topografix.com/GPX/1/1/gpx.xsd" version="1.1" creator="VisuGPX - https://www.visugpx.com">
  <metadata>
    <name>Chateldon</name>
    <desc><![CDATA[Circuit non balisé à faire avec la carte en main où GPS de randonnée.]]></desc>
  </metadata>
  <trk>
    <name><![CDATA[4529185-chateldon]]></name>
    <trkseg>
      <trkpt lat="45.97651" lon="3.52149">
        <ele>318</ele>
        <time>2022-10-01T05:24:58Z</time>
      </trkpt>
      <trkpt lat="45.97647" lon="3.52152">
        <ele>319</ele>
        <time>2022-10-01T05:25:04Z</time>
      </trkpt>
      <trkpt lat="45.97646" lon="3.52157">
        <ele>319</ele>
        <time>2022-10-01T05:25:09Z</time>
      </trkpt>
      <trkpt lat="45.97639" lon="3.5216">
        <ele>320</ele>
        <time>2022-10-01T05:25:19Z</time>
      </trkpt>
      <trkpt lat="45.97643" lon="3.52196">
        <ele>319</ele>
        <time>2022-10-01T05:25:52Z</time>
      </trkpt>
      <trkpt lat="45.97649" lon="3.52204">
        <ele>318</ele>
        <time>2022-10-01T05:26:03Z</time>
      </trkpt>
      <trkpt lat="45.97656" lon="3.52224">
        <ele>317</ele>
        <time>2022-10-01T05:26:24Z</time>
      </trkpt>
      <trkpt lat="45.97659" lon="3.52242">
        <ele>317</ele>
        <time>2022-10-01T05:26:41Z</time>
      </trkpt>
      <trkpt lat="45.97658" lon="3.52249">
        <ele>317</ele>
        <time>2022-10-01T05:26:48Z</time>
      </trkpt>
      <trkpt lat="45.9767" lon="3.52282">
        <ele>317</ele>
        <time>2022-10-01T05:27:22Z</time>
      </trkpt>
      <trkpt lat="45.97679" lon="3.52301">
        <ele>319</ele>
        <time>2022-10-01T05:27:44Z</time>
      </trkpt>
      <trkpt lat="45.97692" lon="3.52319">
        <ele>322</ele>
        <time>2022-10-01T05:28:08Z</time>
      </trkpt>
      <trkpt lat="45.97696" lon="3.52334">
        <ele>322</ele>
        <time>2022-10-01T05:28:23Z</time>
      </trkpt>
      <trkpt lat="45.97705" lon="3.5235">
        <ele>323</ele>
        <time>2022-10-01T05:28:42Z</time>
      </trkpt>
      <trkpt lat="45.97712" lon="3.52384">
        <ele>324</ele>
        <time>2022-10-01T05:29:15Z</time>
      </trkpt>
      <trkpt lat="45.97707" lon="3.52394">
        <ele>324</ele>
        <time>2022-10-01T05:29:26Z</time>
      </trkpt>
      <trkpt lat="45.97737" lon="3.52427">
        <ele>327</ele>
        <time>2022-10-01T05:30:17Z</time>
      </trkpt>
      <trkpt lat="45.97742" lon="3.5244">
        <ele>329</ele>
        <time>2022-10-01T05:30:30Z</time>
      </trkpt>
      <trkpt lat="45.97752" lon="3.52456">
        <ele>332</ele>
        <time>2022-10-01T05:30:50Z</time>
      </trkpt>
      <trkpt lat="45.97778" lon="3.52494">
        <ele>341</ele>
        <time>2022-10-01T05:31:40Z</time>
      </trkpt>
      <trkpt lat="45.97799" lon="3.52518">
        <ele>344</ele>
        <time>2022-10-01T05:32:15Z</time>
      </trkpt>
      <trkpt lat="45.9784" lon="3.52579">
        <ele>336</ele>
        <time>2022-10-01T05:33:34Z</time>
      </trkpt>
      <trkpt lat="45.97853" lon="3.52592">
        <ele>338</ele>
        <time>2022-10-01T05:33:55Z</time>
      </trkpt>
      <trkpt lat="45.97864" lon="3.52597">
        <ele>340</ele>
        <time>2022-10-01T05:34:11Z</time>
      </trkpt>
      <trkpt lat="45.97887" lon="3.52622">
        <ele>341</ele>
        <time>2022-10-01T05:34:49Z</time>
      </trkpt>
      <trkpt lat="45.97907" lon="3.52659">
        <ele>335</ele>
        <time>2022-10-01T05:35:33Z</time>
      </trkpt>
      <trkpt lat="45.97928" lon="3.52689">
        <ele>340</ele>
        <time>2022-10-01T05:36:12Z</time>
      </trkpt>
      <trkpt lat="45.97939" lon="3.527">
        <ele>344</ele>
        <time>2022-10-01T05:36:30Z</time>
      </trkpt>
      <trkpt lat="45.97959" lon="3.52711">
        <ele>348</ele>
        <time>2022-10-01T05:36:59Z</time>
      </trkpt>
      <trkpt lat="45.97986" lon="3.52706">
        <ele>348</ele>
        <time>2022-10-01T05:37:35Z</time>
      </trkpt>
      <trkpt lat="45.97991" lon="3.52699">
        <ele>347</ele>
        <time>2022-10-01T05:37:44Z</time>
      </trkpt>
      <trkpt lat="45.97996" lon="3.52669">
        <ele>341</ele>
        <time>2022-10-01T05:38:13Z</time>
      </trkpt>
      <trkpt lat="45.97996" lon="3.52649">
        <ele>344</ele>
        <time>2022-10-01T05:38:31Z</time>
      </trkpt>
      <trkpt lat="45.97982" lon="3.52649">
        <ele>342</ele>
        <time>2022-10-01T05:38:50Z</time>
      </trkpt>
      <trkpt lat="45.97971" lon="3.52643">
        <ele>342</ele>
        <time>2022-10-01T05:39:06Z</time>
      </trkpt>
      <trkpt lat="45.97958" lon="3.52642">
        <ele>341</ele>
        <time>2022-10-01T05:39:23Z</time>
      </trkpt>
      <trkpt lat="45.97956" lon="3.52638">
        <ele>342</ele>
        <time>2022-10-01T05:39:28Z</time>
      </trkpt>
      <trkpt lat="45.97946" lon="3.52632">
        <ele>342</ele>
        <time>2022-10-01T05:39:42Z</time>
      </trkpt>
      <trkpt lat="45.9794" lon="3.52625">
        <ele>342</ele>
        <time>2022-10-01T05:39:52Z</time>
      </trkpt>
      <trkpt lat="45.97924" lon="3.52598">
        <ele>346</ele>
        <time>2022-10-01T05:40:25Z</time>
      </trkpt>
      <trkpt lat="45.97897" lon="3.52568">
        <ele>350</ele>
        <time>2022-10-01T05:41:11Z</time>
      </trkpt>
      <trkpt lat="45.97855" lon="3.52492">
        <ele>358</ele>
        <time>2022-10-01T05:42:41Z</time>
      </trkpt>
      <trkpt lat="45.97842" lon="3.52448">
        <ele>361</ele>
        <time>2022-10-01T05:43:25Z</time>
      </trkpt>
      <trkpt lat="45.97842" lon="3.52441">
        <ele>362</ele>
        <time>2022-10-01T05:43:32Z</time>
      </trkpt>
      <trkpt lat="45.97814" lon="3.52386">
        <ele>354</ele>
        <time>2022-10-01T05:44:35Z</time>
      </trkpt>
      <trkpt lat="45.97807" lon="3.52365">
        <ele>352</ele>
        <time>2022-10-01T05:44:57Z</time>
      </trkpt>
      <trkpt lat="45.97813" lon="3.52346">
        <ele>355</ele>
        <time>2022-10-01T05:45:16Z</time>
      </trkpt>
      <trkpt lat="45.97841" lon="3.52326">
        <ele>366</ele>
        <time>2022-10-01T05:45:58Z</time>
      </trkpt>
      <trkpt lat="45.97853" lon="3.52307">
        <ele>369</ele>
        <time>2022-10-01T05:46:21Z</time>
      </trkpt>
      <trkpt lat="45.97862" lon="3.52284">
        <ele>370</ele>
        <time>2022-10-01T05:46:46Z</time>
      </trkpt>
      <trkpt lat="45.97874" lon="3.52267">
        <ele>373</ele>
        <time>2022-10-01T05:47:08Z</time>
      </trkpt>
      <trkpt lat="45.97883" lon="3.52235">
        <ele>371</ele>
        <time>2022-10-01T05:47:40Z</time>
      </trkpt>
      <trkpt lat="45.97894" lon="3.52217">
        <ele>371</ele>
        <time>2022-10-01T05:48:03Z</time>
      </trkpt>
      <trkpt lat="45.97898" lon="3.52213">
        <ele>372</ele>
        <time>2022-10-01T05:48:09Z</time>
      </trkpt>
      <trkpt lat="45.97907" lon="3.52211">
        <ele>374</ele>
        <time>2022-10-01T05:48:21Z</time>
      </trkpt>
      <trkpt lat="45.97931" lon="3.52192">
        <ele>377</ele>
        <time>2022-10-01T05:48:58Z</time>
      </trkpt>
      <trkpt lat="45.97945" lon="3.52188">
        <ele>379</ele>
        <time>2022-10-01T05:49:17Z</time>
      </trkpt>
      <trkpt lat="45.97973" lon="3.52159">
        <ele>377</ele>
        <time>2022-10-01T05:50:03Z</time>
      </trkpt>
      <trkpt lat="45.9799" lon="3.5215">
        <ele>378</ele>
        <time>2022-10-01T05:50:27Z</time>
      </trkpt>
      <trkpt lat="45.98017" lon="3.52141">
        <ele>379</ele>
        <time>2022-10-01T05:51:04Z</time>
      </trkpt>
      <trkpt lat="45.98023" lon="3.52136">
        <ele>378</ele>
        <time>2022-10-01T05:51:13Z</time>
      </trkpt>
      <trkpt lat="45.98032" lon="3.52135">
        <ele>379</ele>
        <time>2022-10-01T05:51:25Z</time>
      </trkpt>
      <trkpt lat="45.98041" lon="3.52129">
        <ele>378</ele>
        <time>2022-10-01T05:51:39Z</time>
      </trkpt>
      <trkpt lat="45.98048" lon="3.5213">
        <ele>379</ele>
        <time>2022-10-01T05:51:48Z</time>
      </trkpt>
      <trkpt lat="45.98064" lon="3.52125">
        <ele>380</ele>
        <time>2022-10-01T05:52:10Z</time>
      </trkpt>
      <trkpt lat="45.98077" lon="3.52131">
        <ele>384</ele>
        <time>2022-10-01T05:52:28Z</time>
      </trkpt>
      <trkpt lat="45.98099" lon="3.5213">
        <ele>386</ele>
        <time>2022-10-01T05:52:57Z</time>
      </trkpt>
      <trkpt lat="45.98115" lon="3.52132">
        <ele>388</ele>
        <time>2022-10-01T05:53:19Z</time>
      </trkpt>
      <trkpt lat="45.9812" lon="3.52135">
        <ele>389</ele>
        <time>2022-10-01T05:53:26Z</time>
      </trkpt>
      <trkpt lat="45.98147" lon="3.52136">
        <ele>392</ele>
        <time>2022-10-01T05:54:02Z</time>
      </trkpt>
      <trkpt lat="45.98158" lon="3.52125">
        <ele>390</ele>
        <time>2022-10-01T05:54:20Z</time>
      </trkpt>
      <trkpt lat="45.98169" lon="3.5211">
        <ele>387</ele>
        <time>2022-10-01T05:54:40Z</time>
      </trkpt>
      <trkpt lat="45.98172" lon="3.52101">
        <ele>385</ele>
        <time>2022-10-01T05:54:50Z</time>
      </trkpt>
      <trkpt lat="45.9818" lon="3.52092">
        <ele>384</ele>
        <time>2022-10-01T05:55:03Z</time>
      </trkpt>
      <trkpt lat="45.98187" lon="3.5209">
        <ele>384</ele>
        <time>2022-10-01T05:55:13Z</time>
      </trkpt>
      <trkpt lat="45.98203" lon="3.52075">
        <ele>383</ele>
        <time>2022-10-01T05:55:38Z</time>
      </trkpt>
      <trkpt lat="45.98212" lon="3.52072">
        <ele>383</ele>
        <time>2022-10-01T05:55:50Z</time>
      </trkpt>
      <trkpt lat="45.98217" lon="3.52074">
        <ele>384</ele>
        <time>2022-10-01T05:55:57Z</time>
      </trkpt>
      <trkpt lat="45.98231" lon="3.52072">
        <ele>386</ele>
        <time>2022-10-01T05:56:16Z</time>
      </trkpt>
      <trkpt lat="45.9825" lon="3.52075">
        <ele>389</ele>
        <time>2022-10-01T05:56:42Z</time>
      </trkpt>
      <trkpt lat="45.98267" lon="3.52065">
        <ele>387</ele>
        <time>2022-10-01T05:57:06Z</time>
      </trkpt>
      <trkpt lat="45.98286" lon="3.52067">
        <ele>389</ele>
        <time>2022-10-01T05:57:32Z</time>
      </trkpt>
      <trkpt lat="45.98302" lon="3.52064">
        <ele>389</ele>
        <time>2022-10-01T05:57:53Z</time>
      </trkpt>
      <trkpt lat="45.98325" lon="3.5207">
        <ele>391</ele>
        <time>2022-10-01T05:58:24Z</time>
      </trkpt>
      <trkpt lat="45.98334" lon="3.52069">
        <ele>391</ele>
        <time>2022-10-01T05:58:36Z</time>
      </trkpt>
      <trkpt lat="45.98355" lon="3.52075">
        <ele>394</ele>
        <time>2022-10-01T05:59:05Z</time>
      </trkpt>
      <trkpt lat="45.9836" lon="3.52072">
        <ele>394</ele>
        <time>2022-10-01T05:59:12Z</time>
      </trkpt>
      <trkpt lat="45.9837" lon="3.52071">
        <ele>395</ele>
        <time>2022-10-01T05:59:25Z</time>
      </trkpt>
      <trkpt lat="45.9838" lon="3.52065">
        <ele>396</ele>
        <time>2022-10-01T05:59:40Z</time>
      </trkpt>
      <trkpt lat="45.98392" lon="3.52066">
        <ele>397</ele>
        <time>2022-10-01T05:59:56Z</time>
      </trkpt>
      <trkpt lat="45.98399" lon="3.52064">
        <ele>398</ele>
        <time>2022-10-01T06:00:06Z</time>
      </trkpt>
      <trkpt lat="45.98413" lon="3.52054">
        <ele>399</ele>
        <time>2022-10-01T06:00:26Z</time>
      </trkpt>
      <trkpt lat="45.98425" lon="3.52037">
        <ele>401</ele>
        <time>2022-10-01T06:00:49Z</time>
      </trkpt>
      <trkpt lat="45.98431" lon="3.52024">
        <ele>402</ele>
        <time>2022-10-01T06:01:03Z</time>
      </trkpt>
      <trkpt lat="45.98432" lon="3.52014">
        <ele>402</ele>
        <time>2022-10-01T06:01:13Z</time>
      </trkpt>
      <trkpt lat="45.98429" lon="3.51991">
        <ele>402</ele>
        <time>2022-10-01T06:01:34Z</time>
      </trkpt>
      <trkpt lat="45.98425" lon="3.51979">
        <ele>402</ele>
        <time>2022-10-01T06:01:47Z</time>
      </trkpt>
      <trkpt lat="45.98425" lon="3.51964">
        <ele>403</ele>
        <time>2022-10-01T06:02:01Z</time>
      </trkpt>
      <trkpt lat="45.9842" lon="3.51949">
        <ele>403</ele>
        <time>2022-10-01T06:02:16Z</time>
      </trkpt>
      <trkpt lat="45.98403" lon="3.51917">
        <ele>401</ele>
        <time>2022-10-01T06:02:53Z</time>
      </trkpt>
      <trkpt lat="45.98392" lon="3.51911">
        <ele>398</ele>
        <time>2022-10-01T06:03:09Z</time>
      </trkpt>
      <trkpt lat="45.9838" lon="3.51891">
        <ele>395</ele>
        <time>2022-10-01T06:03:34Z</time>
      </trkpt>
      <trkpt lat="45.98373" lon="3.51868">
        <ele>394</ele>
        <time>2022-10-01T06:03:57Z</time>
      </trkpt>
      <trkpt lat="45.98373" lon="3.51852">
        <ele>395</ele>
        <time>2022-10-01T06:04:12Z</time>
      </trkpt>
      <trkpt lat="45.98389" lon="3.51815">
        <ele>397</ele>
        <time>2022-10-01T06:04:52Z</time>
      </trkpt>
      <trkpt lat="45.98409" lon="3.51792">
        <ele>399</ele>
        <time>2022-10-01T06:05:26Z</time>
      </trkpt>
      <trkpt lat="45.98439" lon="3.51777">
        <ele>403</ele>
        <time>2022-10-01T06:06:09Z</time>
      </trkpt>
      <trkpt lat="45.9846" lon="3.51758">
        <ele>404</ele>
        <time>2022-10-01T06:06:42Z</time>
      </trkpt>
      <trkpt lat="45.9847" lon="3.5174">
        <ele>403</ele>
        <time>2022-10-01T06:07:03Z</time>
      </trkpt>
      <trkpt lat="45.98478" lon="3.51717">
        <ele>401</ele>
        <time>2022-10-01T06:07:27Z</time>
      </trkpt>
      <trkpt lat="45.98496" lon="3.51704">
        <ele>401</ele>
        <time>2022-10-01T06:07:54Z</time>
      </trkpt>
      <trkpt lat="45.98507" lon="3.51692">
        <ele>401</ele>
        <time>2022-10-01T06:08:12Z</time>
      </trkpt>
      <trkpt lat="45.98543" lon="3.51634">
        <ele>397</ele>
        <time>2022-10-01T06:09:24Z</time>
      </trkpt>
      <trkpt lat="45.98562" lon="3.5162">
        <ele>398</ele>
        <time>2022-10-01T06:09:53Z</time>
      </trkpt>
      <trkpt lat="45.98569" lon="3.51611">
        <ele>397</ele>
        <time>2022-10-01T06:10:05Z</time>
      </trkpt>
      <trkpt lat="45.98579" lon="3.51608">
        <ele>398</ele>
        <time>2022-10-01T06:10:19Z</time>
      </trkpt>
      <trkpt lat="45.98604" lon="3.5158">
        <ele>397</ele>
        <time>2022-10-01T06:11:01Z</time>
      </trkpt>
      <trkpt lat="45.98649" lon="3.51564">
        <ele>399</ele>
        <time>2022-10-01T06:12:03Z</time>
      </trkpt>
      <trkpt lat="45.98669" lon="3.51563">
        <ele>401</ele>
        <time>2022-10-01T06:12:30Z</time>
      </trkpt>
      <trkpt lat="45.98679" lon="3.5156">
        <ele>400</ele>
        <time>2022-10-01T06:12:44Z</time>
      </trkpt>
      <trkpt lat="45.98703" lon="3.51548">
        <ele>397</ele>
        <time>2022-10-01T06:13:17Z</time>
      </trkpt>
      <trkpt lat="45.9871" lon="3.51547">
        <ele>397</ele>
        <time>2022-10-01T06:13:27Z</time>
      </trkpt>
      <trkpt lat="45.98713" lon="3.51541">
        <ele>396</ele>
        <time>2022-10-01T06:13:34Z</time>
      </trkpt>
      <trkpt lat="45.98733" lon="3.51545">
        <ele>396</ele>
        <time>2022-10-01T06:14:01Z</time>
      </trkpt>
      <trkpt lat="45.98765" lon="3.51545">
        <ele>396</ele>
        <time>2022-10-01T06:14:43Z</time>
      </trkpt>
      <trkpt lat="45.98775" lon="3.51542">
        <ele>396</ele>
        <time>2022-10-01T06:14:57Z</time>
      </trkpt>
      <trkpt lat="45.98792" lon="3.51542">
        <ele>396</ele>
        <time>2022-10-01T06:15:20Z</time>
      </trkpt>
      <trkpt lat="45.9881" lon="3.51528">
        <ele>394</ele>
        <time>2022-10-01T06:15:47Z</time>
      </trkpt>
      <trkpt lat="45.98829" lon="3.51518">
        <ele>393</ele>
        <time>2022-10-01T06:16:14Z</time>
      </trkpt>
      <trkpt lat="45.98832" lon="3.51512">
        <ele>392</ele>
        <time>2022-10-01T06:16:21Z</time>
      </trkpt>
      <trkpt lat="45.98841" lon="3.51482">
        <ele>391</ele>
        <time>2022-10-01T06:16:51Z</time>
      </trkpt>
      <trkpt lat="45.98843" lon="3.5146">
        <ele>390</ele>
        <time>2022-10-01T06:17:12Z</time>
      </trkpt>
      <trkpt lat="45.98834" lon="3.51438">
        <ele>388</ele>
        <time>2022-10-01T06:17:35Z</time>
      </trkpt>
      <trkpt lat="45.98832" lon="3.51406">
        <ele>387</ele>
        <time>2022-10-01T06:18:05Z</time>
      </trkpt>
      <trkpt lat="45.98824" lon="3.51372">
        <ele>386</ele>
        <time>2022-10-01T06:18:38Z</time>
      </trkpt>
      <trkpt lat="45.98824" lon="3.51321">
        <ele>385</ele>
        <time>2022-10-01T06:19:26Z</time>
      </trkpt>
      <trkpt lat="45.98816" lon="3.5132">
        <ele>384</ele>
        <time>2022-10-01T06:19:36Z</time>
      </trkpt>
      <trkpt lat="45.98812" lon="3.51317">
        <ele>383</ele>
        <time>2022-10-01T06:19:42Z</time>
      </trkpt>
      <trkpt lat="45.98789" lon="3.51287">
        <ele>380</ele>
        <time>2022-10-01T06:20:24Z</time>
      </trkpt>
      <trkpt lat="45.98785" lon="3.51276">
        <ele>379</ele>
        <time>2022-10-01T06:20:35Z</time>
      </trkpt>
      <trkpt lat="45.98753" lon="3.51241">
        <ele>378</ele>
        <time>2022-10-01T06:21:29Z</time>
      </trkpt>
      <trkpt lat="45.9875" lon="3.51235">
        <ele>377</ele>
        <time>2022-10-01T06:21:36Z</time>
      </trkpt>
      <trkpt lat="45.98747" lon="3.51212">
        <ele>376</ele>
        <time>2022-10-01T06:21:58Z</time>
      </trkpt>
      <trkpt lat="45.98769" lon="3.51093">
        <ele>359</ele>
        <time>2022-10-01T06:23:52Z</time>
      </trkpt>
      <trkpt lat="45.98772" lon="3.51088">
        <ele>358</ele>
        <time>2022-10-01T06:23:58Z</time>
      </trkpt>
      <trkpt lat="45.98781" lon="3.51082">
        <ele>357</ele>
        <time>2022-10-01T06:24:11Z</time>
      </trkpt>
      <trkpt lat="45.9879" lon="3.51066">
        <ele>355</ele>
        <time>2022-10-01T06:24:30Z</time>
      </trkpt>
      <trkpt lat="45.98804" lon="3.51053">
        <ele>353</ele>
        <time>2022-10-01T06:24:52Z</time>
      </trkpt>
      <trkpt lat="45.98815" lon="3.51037">
        <ele>350</ele>
        <time>2022-10-01T06:25:13Z</time>
      </trkpt>
      <trkpt lat="45.9882" lon="3.51024">
        <ele>349</ele>
        <time>2022-10-01T06:25:27Z</time>
      </trkpt>
      <trkpt lat="45.98822" lon="3.50927">
        <ele>339</ele>
        <time>2022-10-01T06:26:57Z</time>
      </trkpt>
      <trkpt lat="45.98819" lon="3.50892">
        <ele>337</ele>
        <time>2022-10-01T06:27:30Z</time>
      </trkpt>
      <trkpt lat="45.98797" lon="3.50815">
        <ele>329</ele>
        <time>2022-10-01T06:28:47Z</time>
      </trkpt>
      <trkpt lat="45.98785" lon="3.50795">
        <ele>325</ele>
        <time>2022-10-01T06:29:11Z</time>
      </trkpt>
      <trkpt lat="45.98778" lon="3.50775">
        <ele>322</ele>
        <time>2022-10-01T06:29:32Z</time>
      </trkpt>
      <trkpt lat="45.98771" lon="3.50765">
        <ele>321</ele>
        <time>2022-10-01T06:29:45Z</time>
      </trkpt>
      <trkpt lat="45.98768" lon="3.50752">
        <ele>319</ele>
        <time>2022-10-01T06:29:58Z</time>
      </trkpt>
      <trkpt lat="45.98759" lon="3.5075">
        <ele>318</ele>
        <time>2022-10-01T06:30:10Z</time>
      </trkpt>
      <trkpt lat="45.98751" lon="3.50756">
        <ele>318</ele>
        <time>2022-10-01T06:30:22Z</time>
      </trkpt>
      <trkpt lat="45.98735" lon="3.50759">
        <ele>316</ele>
        <time>2022-10-01T06:30:44Z</time>
      </trkpt>
      <trkpt lat="45.98719" lon="3.50767">
        <ele>315</ele>
        <time>2022-10-01T06:31:06Z</time>
      </trkpt>
      <trkpt lat="45.98712" lon="3.50766">
        <ele>314</ele>
        <time>2022-10-01T06:31:16Z</time>
      </trkpt>
      <trkpt lat="45.98701" lon="3.5077">
        <ele>313</ele>
        <time>2022-10-01T06:31:31Z</time>
      </trkpt>
      <trkpt lat="45.98695" lon="3.50768">
        <ele>312</ele>
        <time>2022-10-01T06:31:39Z</time>
      </trkpt>
      <trkpt lat="45.98691" lon="3.50773">
        <ele>312</ele>
        <time>2022-10-01T06:31:46Z</time>
      </trkpt>
      <trkpt lat="45.98665" lon="3.50781">
        <ele>311</ele>
        <time>2022-10-01T06:32:22Z</time>
      </trkpt>
      <trkpt lat="45.9864" lon="3.50794">
        <ele>311</ele>
        <time>2022-10-01T06:32:57Z</time>
      </trkpt>
      <trkpt lat="45.98633" lon="3.50794">
        <ele>310</ele>
        <time>2022-10-01T06:33:06Z</time>
      </trkpt>
      <trkpt lat="45.98615" lon="3.508">
        <ele>310</ele>
        <time>2022-10-01T06:33:31Z</time>
      </trkpt>
      <trkpt lat="45.98591" lon="3.50813">
        <ele>310</ele>
        <time>2022-10-01T06:34:05Z</time>
      </trkpt>
      <trkpt lat="45.98557" lon="3.50824">
        <ele>308</ele>
        <time>2022-10-01T06:34:52Z</time>
      </trkpt>
      <trkpt lat="45.98541" lon="3.50834">
        <ele>308</ele>
        <time>2022-10-01T06:35:15Z</time>
      </trkpt>
      <trkpt lat="45.98533" lon="3.50842">
        <ele>308</ele>
        <time>2022-10-01T06:35:28Z</time>
      </trkpt>
      <trkpt lat="45.98509" lon="3.50886">
        <ele>308</ele>
        <time>2022-10-01T06:36:20Z</time>
      </trkpt>
      <trkpt lat="45.98478" lon="3.50912">
        <ele>306</ele>
        <time>2022-10-01T06:37:08Z</time>
      </trkpt>
      <trkpt lat="45.98466" lon="3.50927">
        <ele>306</ele>
        <time>2022-10-01T06:37:29Z</time>
      </trkpt>
      <trkpt lat="45.98459" lon="3.50932">
        <ele>305</ele>
        <time>2022-10-01T06:37:40Z</time>
      </trkpt>
      <trkpt lat="45.98453" lon="3.50933">
        <ele>305</ele>
        <time>2022-10-01T06:37:48Z</time>
      </trkpt>
      <trkpt lat="45.98445" lon="3.50945">
        <ele>305</ele>
        <time>2022-10-01T06:38:03Z</time>
      </trkpt>
      <trkpt lat="45.98434" lon="3.50947">
        <ele>304</ele>
        <time>2022-10-01T06:38:18Z</time>
      </trkpt>
      <trkpt lat="45.98421" lon="3.50959">
        <ele>304</ele>
        <time>2022-10-01T06:38:38Z</time>
      </trkpt>
      <trkpt lat="45.98405" lon="3.50967">
        <ele>303</ele>
        <time>2022-10-01T06:39:01Z</time>
      </trkpt>
      <trkpt lat="45.984" lon="3.50967">
        <ele>303</ele>
        <time>2022-10-01T06:39:08Z</time>
      </trkpt>
      <trkpt lat="45.98394" lon="3.50951">
        <ele>302</ele>
        <time>2022-10-01T06:39:25Z</time>
      </trkpt>
      <trkpt lat="45.98386" lon="3.50941">
        <ele>302</ele>
        <time>2022-10-01T06:39:39Z</time>
      </trkpt>
      <trkpt lat="45.98369" lon="3.50937">
        <ele>301</ele>
        <time>2022-10-01T06:40:02Z</time>
      </trkpt>
      <trkpt lat="45.98351" lon="3.50945">
        <ele>300</ele>
        <time>2022-10-01T06:40:27Z</time>
      </trkpt>
      <trkpt lat="45.98328" lon="3.50968">
        <ele>300</ele>
        <time>2022-10-01T06:41:04Z</time>
      </trkpt>
      <trkpt lat="45.98313" lon="3.50979">
        <ele>300</ele>
        <time>2022-10-01T06:41:27Z</time>
      </trkpt>
      <trkpt lat="45.98304" lon="3.50982">
        <ele>300</ele>
        <time>2022-10-01T06:41:39Z</time>
      </trkpt>
      <trkpt lat="45.98281" lon="3.50965">
        <ele>300</ele>
        <time>2022-10-01T06:42:13Z</time>
      </trkpt>
      <trkpt lat="45.98273" lon="3.50949">
        <ele>299</ele>
        <time>2022-10-01T06:42:32Z</time>
      </trkpt>
      <trkpt lat="45.98265" lon="3.50926">
        <ele>299</ele>
        <time>2022-10-01T06:42:56Z</time>
      </trkpt>
      <trkpt lat="45.98263" lon="3.50912">
        <ele>299</ele>
        <time>2022-10-01T06:43:09Z</time>
      </trkpt>
      <trkpt lat="45.98265" lon="3.50886">
        <ele>299</ele>
        <time>2022-10-01T06:43:33Z</time>
      </trkpt>
      <trkpt lat="45.98272" lon="3.5087">
        <ele>299</ele>
        <time>2022-10-01T06:43:51Z</time>
      </trkpt>
      <trkpt lat="45.98271" lon="3.50864">
        <ele>299</ele>
        <time>2022-10-01T06:43:56Z</time>
      </trkpt>
      <trkpt lat="45.98256" lon="3.50843">
        <ele>300</ele>
        <time>2022-10-01T06:44:24Z</time>
      </trkpt>
      <trkpt lat="45.98251" lon="3.50841">
        <ele>300</ele>
        <time>2022-10-01T06:44:31Z</time>
      </trkpt>
      <trkpt lat="45.98243" lon="3.50824">
        <ele>301</ele>
        <time>2022-10-01T06:44:50Z</time>
      </trkpt>
      <trkpt lat="45.98233" lon="3.50813">
        <ele>303</ele>
        <time>2022-10-01T06:45:07Z</time>
      </trkpt>
      <trkpt lat="45.98227" lon="3.5081">
        <ele>304</ele>
        <time>2022-10-01T06:45:16Z</time>
      </trkpt>
      <trkpt lat="45.98217" lon="3.50812">
        <ele>305</ele>
        <time>2022-10-01T06:45:29Z</time>
      </trkpt>
      <trkpt lat="45.98209" lon="3.5081">
        <ele>306</ele>
        <time>2022-10-01T06:45:40Z</time>
      </trkpt>
      <trkpt lat="45.98196" lon="3.50811">
        <ele>308</ele>
        <time>2022-10-01T06:45:57Z</time>
      </trkpt>
      <trkpt lat="45.98182" lon="3.50814">
        <ele>309</ele>
        <time>2022-10-01T06:46:16Z</time>
      </trkpt>
      <trkpt lat="45.98174" lon="3.5082">
        <ele>310</ele>
        <time>2022-10-01T06:46:28Z</time>
      </trkpt>
      <trkpt lat="45.98157" lon="3.50843">
        <ele>311</ele>
        <time>2022-10-01T06:46:59Z</time>
      </trkpt>
      <trkpt lat="45.98151" lon="3.50856">
        <ele>312</ele>
        <time>2022-10-01T06:47:14Z</time>
      </trkpt>
      <trkpt lat="45.98151" lon="3.50863">
        <ele>311</ele>
        <time>2022-10-01T06:47:20Z</time>
      </trkpt>
      <trkpt lat="45.98145" lon="3.50873">
        <ele>312</ele>
        <time>2022-10-01T06:47:33Z</time>
      </trkpt>
      <trkpt lat="45.9814" lon="3.50896">
        <ele>312</ele>
        <time>2022-10-01T06:47:55Z</time>
      </trkpt>
      <trkpt lat="45.98129" lon="3.50912">
        <ele>313</ele>
        <time>2022-10-01T06:48:16Z</time>
      </trkpt>
      <trkpt lat="45.98121" lon="3.50931">
        <ele>313</ele>
        <time>2022-10-01T06:48:36Z</time>
      </trkpt>
      <trkpt lat="45.98106" lon="3.50944">
        <ele>316</ele>
        <time>2022-10-01T06:49:00Z</time>
      </trkpt>
      <trkpt lat="45.98104" lon="3.50955">
        <ele>315</ele>
        <time>2022-10-01T06:49:10Z</time>
      </trkpt>
      <trkpt lat="45.98087" lon="3.50989">
        <ele>317</ele>
        <time>2022-10-01T06:49:49Z</time>
      </trkpt>
      <trkpt lat="45.98075" lon="3.51002">
        <ele>318</ele>
        <time>2022-10-01T06:50:09Z</time>
      </trkpt>
      <trkpt lat="45.98045" lon="3.51013">
        <ele>321</ele>
        <time>2022-10-01T06:50:50Z</time>
      </trkpt>
      <trkpt lat="45.98031" lon="3.5101">
        <ele>323</ele>
        <time>2022-10-01T06:51:09Z</time>
      </trkpt>
      <trkpt lat="45.98018" lon="3.51003">
        <ele>324</ele>
        <time>2022-10-01T06:51:28Z</time>
      </trkpt>
      <trkpt lat="45.98005" lon="3.50988">
        <ele>326</ele>
        <time>2022-10-01T06:51:50Z</time>
      </trkpt>
      <trkpt lat="45.97995" lon="3.50966">
        <ele>328</ele>
        <time>2022-10-01T06:52:14Z</time>
      </trkpt>
      <trkpt lat="45.97992" lon="3.50953">
        <ele>328</ele>
        <time>2022-10-01T06:52:27Z</time>
      </trkpt>
      <trkpt lat="45.9799" lon="3.50896">
        <ele>331</ele>
        <time>2022-10-01T06:53:20Z</time>
      </trkpt>
      <trkpt lat="45.97984" lon="3.50856">
        <ele>334</ele>
        <time>2022-10-01T06:53:58Z</time>
      </trkpt>
      <trkpt lat="45.97984" lon="3.50819">
        <ele>336</ele>
        <time>2022-10-01T06:54:32Z</time>
      </trkpt>
      <trkpt lat="45.97973" lon="3.50789">
        <ele>337</ele>
        <time>2022-10-01T06:55:04Z</time>
      </trkpt>
      <trkpt lat="45.97959" lon="3.5077">
        <ele>338</ele>
        <time>2022-10-01T06:55:29Z</time>
      </trkpt>
      <trkpt lat="45.97943" lon="3.50757">
        <ele>340</ele>
        <time>2022-10-01T06:55:54Z</time>
      </trkpt>
      <trkpt lat="45.97925" lon="3.50752">
        <ele>342</ele>
        <time>2022-10-01T06:56:18Z</time>
      </trkpt>
      <trkpt lat="45.97902" lon="3.50756">
        <ele>344</ele>
        <time>2022-10-01T06:56:49Z</time>
      </trkpt>
      <trkpt lat="45.97887" lon="3.50764">
        <ele>344</ele>
        <time>2022-10-01T06:57:11Z</time>
      </trkpt>
      <trkpt lat="45.97877" lon="3.50766">
        <ele>345</ele>
        <time>2022-10-01T06:57:24Z</time>
      </trkpt>
      <trkpt lat="45.97867" lon="3.50772">
        <ele>345</ele>
        <time>2022-10-01T06:57:39Z</time>
      </trkpt>
      <trkpt lat="45.97859" lon="3.50772">
        <ele>346</ele>
        <time>2022-10-01T06:57:49Z</time>
      </trkpt>
      <trkpt lat="45.97842" lon="3.50781">
        <ele>346</ele>
        <time>2022-10-01T06:58:14Z</time>
      </trkpt>
      <trkpt lat="45.97822" lon="3.50788">
        <ele>347</ele>
        <time>2022-10-01T06:58:41Z</time>
      </trkpt>
      <trkpt lat="45.97812" lon="3.50795">
        <ele>348</ele>
        <time>2022-10-01T06:58:56Z</time>
      </trkpt>
      <trkpt lat="45.978" lon="3.50796">
        <ele>349</ele>
        <time>2022-10-01T06:59:12Z</time>
      </trkpt>
      <trkpt lat="45.97775" lon="3.50805">
        <ele>351</ele>
        <time>2022-10-01T06:59:46Z</time>
      </trkpt>
      <trkpt lat="45.97726" lon="3.50831">
        <ele>355</ele>
        <time>2022-10-01T07:00:56Z</time>
      </trkpt>
      <trkpt lat="45.97683" lon="3.50848">
        <ele>359</ele>
        <time>2022-10-01T07:01:55Z</time>
      </trkpt>
      <trkpt lat="45.97658" lon="3.50856">
        <ele>361</ele>
        <time>2022-10-01T07:02:30Z</time>
      </trkpt>
      <trkpt lat="45.97617" lon="3.50865">
        <ele>363</ele>
        <time>2022-10-01T07:03:25Z</time>
      </trkpt>
      <trkpt lat="45.9761" lon="3.50861">
        <ele>364</ele>
        <time>2022-10-01T07:03:35Z</time>
      </trkpt>
      <trkpt lat="45.97605" lon="3.50861">
        <ele>364</ele>
        <time>2022-10-01T07:03:42Z</time>
      </trkpt>
      <trkpt lat="45.97592" lon="3.50874">
        <ele>365</ele>
        <time>2022-10-01T07:04:03Z</time>
      </trkpt>
      <trkpt lat="45.97575" lon="3.50911">
        <ele>366</ele>
        <time>2022-10-01T07:04:44Z</time>
      </trkpt>
      <trkpt lat="45.97559" lon="3.50939">
        <ele>367</ele>
        <time>2022-10-01T07:05:18Z</time>
      </trkpt>
      <trkpt lat="45.97544" lon="3.50974">
        <ele>368</ele>
        <time>2022-10-01T07:05:56Z</time>
      </trkpt>
      <trkpt lat="45.97519" lon="3.5102">
        <ele>369</ele>
        <time>2022-10-01T07:06:50Z</time>
      </trkpt>
      <trkpt lat="45.97493" lon="3.51077">
        <ele>371</ele>
        <time>2022-10-01T07:07:53Z</time>
      </trkpt>
      <trkpt lat="45.97485" lon="3.51085">
        <ele>371</ele>
        <time>2022-10-01T07:08:06Z</time>
      </trkpt>
      <trkpt lat="45.97475" lon="3.51087">
        <ele>371</ele>
        <time>2022-10-01T07:08:20Z</time>
      </trkpt>
      <trkpt lat="45.97442" lon="3.51042">
        <ele>371</ele>
        <time>2022-10-01T07:09:20Z</time>
      </trkpt>
      <trkpt lat="45.97425" lon="3.51026">
        <ele>371</ele>
        <time>2022-10-01T07:09:47Z</time>
      </trkpt>
      <trkpt lat="45.97406" lon="3.50998">
        <ele>371</ele>
        <time>2022-10-01T07:10:24Z</time>
      </trkpt>
      <trkpt lat="45.9739" lon="3.5098">
        <ele>370</ele>
        <time>2022-10-01T07:10:51Z</time>
      </trkpt>
      <trkpt lat="45.97368" lon="3.50945">
        <ele>367</ele>
        <time>2022-10-01T07:11:35Z</time>
      </trkpt>
      <trkpt lat="45.97345" lon="3.50915">
        <ele>364</ele>
        <time>2022-10-01T07:12:16Z</time>
      </trkpt>
      <trkpt lat="45.97329" lon="3.50887">
        <ele>361</ele>
        <time>2022-10-01T07:12:50Z</time>
      </trkpt>
      <trkpt lat="45.97308" lon="3.5086">
        <ele>357</ele>
        <time>2022-10-01T07:13:27Z</time>
      </trkpt>
      <trkpt lat="45.97289" lon="3.50827">
        <ele>353</ele>
        <time>2022-10-01T07:14:07Z</time>
      </trkpt>
      <trkpt lat="45.97269" lon="3.50806">
        <ele>351</ele>
        <time>2022-10-01T07:14:40Z</time>
      </trkpt>
      <trkpt lat="45.97263" lon="3.50795">
        <ele>350</ele>
        <time>2022-10-01T07:14:53Z</time>
      </trkpt>
      <trkpt lat="45.97239" lon="3.50772">
        <ele>347</ele>
        <time>2022-10-01T07:15:31Z</time>
      </trkpt>
      <trkpt lat="45.97212" lon="3.50717">
        <ele>343</ele>
        <time>2022-10-01T07:16:34Z</time>
      </trkpt>
      <trkpt lat="45.97189" lon="3.5069">
        <ele>341</ele>
        <time>2022-10-01T07:17:13Z</time>
      </trkpt>
      <trkpt lat="45.97178" lon="3.50671">
        <ele>340</ele>
        <time>2022-10-01T07:17:36Z</time>
      </trkpt>
      <trkpt lat="45.97159" lon="3.50657">
        <ele>338</ele>
        <time>2022-10-01T07:18:05Z</time>
      </trkpt>
      <trkpt lat="45.97139" lon="3.50625">
        <ele>336</ele>
        <time>2022-10-01T07:18:45Z</time>
      </trkpt>
      <trkpt lat="45.97133" lon="3.50611">
        <ele>335</ele>
        <time>2022-10-01T07:19:00Z</time>
      </trkpt>
      <trkpt lat="45.97125" lon="3.50605">
        <ele>335</ele>
        <time>2022-10-01T07:19:12Z</time>
      </trkpt>
      <trkpt lat="45.97122" lon="3.50596">
        <ele>335</ele>
        <time>2022-10-01T07:19:21Z</time>
      </trkpt>
      <trkpt lat="45.97113" lon="3.5059">
        <ele>334</ele>
        <time>2022-10-01T07:19:35Z</time>
      </trkpt>
      <trkpt lat="45.97109" lon="3.50579">
        <ele>334</ele>
        <time>2022-10-01T07:19:46Z</time>
      </trkpt>
      <trkpt lat="45.97096" lon="3.50558">
        <ele>333</ele>
        <time>2022-10-01T07:20:12Z</time>
      </trkpt>
      <trkpt lat="45.97084" lon="3.5055">
        <ele>333</ele>
        <time>2022-10-01T07:20:30Z</time>
      </trkpt>
      <trkpt lat="45.97077" lon="3.50536">
        <ele>332</ele>
        <time>2022-10-01T07:20:46Z</time>
      </trkpt>
      <trkpt lat="45.97064" lon="3.50521">
        <ele>331</ele>
        <time>2022-10-01T07:21:08Z</time>
      </trkpt>
      <trkpt lat="45.97062" lon="3.50514">
        <ele>331</ele>
        <time>2022-10-01T07:21:15Z</time>
      </trkpt>
      <trkpt lat="45.97052" lon="3.50499">
        <ele>330</ele>
        <time>2022-10-01T07:21:34Z</time>
      </trkpt>
      <trkpt lat="45.97035" lon="3.50479">
        <ele>329</ele>
        <time>2022-10-01T07:22:04Z</time>
      </trkpt>
      <trkpt lat="45.97019" lon="3.50453">
        <ele>329</ele>
        <time>2022-10-01T07:22:36Z</time>
      </trkpt>
      <trkpt lat="45.97011" lon="3.50445">
        <ele>329</ele>
        <time>2022-10-01T07:22:49Z</time>
      </trkpt>
      <trkpt lat="45.96991" lon="3.50411">
        <ele>328</ele>
        <time>2022-10-01T07:23:30Z</time>
      </trkpt>
      <trkpt lat="45.96976" lon="3.50401">
        <ele>328</ele>
        <time>2022-10-01T07:23:52Z</time>
      </trkpt>
      <trkpt lat="45.96971" lon="3.5039">
        <ele>328</ele>
        <time>2022-10-01T07:24:04Z</time>
      </trkpt>
      <trkpt lat="45.96943" lon="3.50361">
        <ele>328</ele>
        <time>2022-10-01T07:24:50Z</time>
      </trkpt>
      <trkpt lat="45.96931" lon="3.50336">
        <ele>328</ele>
        <time>2022-10-01T07:25:19Z</time>
      </trkpt>
      <trkpt lat="45.96914" lon="3.50314">
        <ele>328</ele>
        <time>2022-10-01T07:25:49Z</time>
      </trkpt>
      <trkpt lat="45.96906" lon="3.50293">
        <ele>327</ele>
        <time>2022-10-01T07:26:11Z</time>
      </trkpt>
      <trkpt lat="45.96893" lon="3.50275">
        <ele>327</ele>
        <time>2022-10-01T07:26:35Z</time>
      </trkpt>
      <trkpt lat="45.96884" lon="3.50272">
        <ele>326</ele>
        <time>2022-10-01T07:26:48Z</time>
      </trkpt>
      <trkpt lat="45.96846" lon="3.50212">
        <ele>324</ele>
        <time>2022-10-01T07:28:03Z</time>
      </trkpt>
      <trkpt lat="45.96838" lon="3.50205">
        <ele>324</ele>
        <time>2022-10-01T07:28:16Z</time>
      </trkpt>
      <trkpt lat="45.96833" lon="3.50205">
        <ele>324</ele>
        <time>2022-10-01T07:28:22Z</time>
      </trkpt>
      <trkpt lat="45.96832" lon="3.50199">
        <ele>324</ele>
        <time>2022-10-01T07:28:28Z</time>
      </trkpt>
      <trkpt lat="45.96828" lon="3.50194">
        <ele>324</ele>
        <time>2022-10-01T07:28:35Z</time>
      </trkpt>
      <trkpt lat="45.96813" lon="3.50182">
        <ele>323</ele>
        <time>2022-10-01T07:28:58Z</time>
      </trkpt>
      <trkpt lat="45.96806" lon="3.50171">
        <ele>322</ele>
        <time>2022-10-01T07:29:12Z</time>
      </trkpt>
      <trkpt lat="45.96796" lon="3.50163">
        <ele>322</ele>
        <time>2022-10-01T07:29:27Z</time>
      </trkpt>
      <trkpt lat="45.96794" lon="3.50158">
        <ele>322</ele>
        <time>2022-10-01T07:29:32Z</time>
      </trkpt>
      <trkpt lat="45.96789" lon="3.50155">
        <ele>322</ele>
        <time>2022-10-01T07:29:40Z</time>
      </trkpt>
      <trkpt lat="45.96767" lon="3.50129">
        <ele>321</ele>
        <time>2022-10-01T07:30:18Z</time>
      </trkpt>
      <trkpt lat="45.96727" lon="3.50055">
        <ele>321</ele>
        <time>2022-10-01T07:31:45Z</time>
      </trkpt>
      <trkpt lat="45.96724" lon="3.50044">
        <ele>321</ele>
        <time>2022-10-01T07:31:56Z</time>
      </trkpt>
      <trkpt lat="45.96716" lon="3.50032">
        <ele>321</ele>
        <time>2022-10-01T07:32:11Z</time>
      </trkpt>
      <trkpt lat="45.96713" lon="3.5002">
        <ele>321</ele>
        <time>2022-10-01T07:32:23Z</time>
      </trkpt>
      <trkpt lat="45.96698" lon="3.49999">
        <ele>321</ele>
        <time>2022-10-01T07:32:51Z</time>
      </trkpt>
      <trkpt lat="45.96684" lon="3.49966">
        <ele>320</ele>
        <time>2022-10-01T07:33:27Z</time>
      </trkpt>
      <trkpt lat="45.96666" lon="3.49936">
        <ele>320</ele>
        <time>2022-10-01T07:34:03Z</time>
      </trkpt>
      <trkpt lat="45.9666" lon="3.49918">
        <ele>320</ele>
        <time>2022-10-01T07:34:22Z</time>
      </trkpt>
      <trkpt lat="45.96653" lon="3.49908">
        <ele>320</ele>
        <time>2022-10-01T07:34:35Z</time>
      </trkpt>
      <trkpt lat="45.96626" lon="3.49886">
        <ele>319</ele>
        <time>2022-10-01T07:35:16Z</time>
      </trkpt>
      <trkpt lat="45.96618" lon="3.49874">
        <ele>319</ele>
        <time>2022-10-01T07:35:32Z</time>
      </trkpt>
      <trkpt lat="45.96611" lon="3.49854">
        <ele>318</ele>
        <time>2022-10-01T07:35:53Z</time>
      </trkpt>
      <trkpt lat="45.96603" lon="3.49846">
        <ele>318</ele>
        <time>2022-10-01T07:36:06Z</time>
      </trkpt>
      <trkpt lat="45.96584" lon="3.49814">
        <ele>317</ele>
        <time>2022-10-01T07:36:45Z</time>
      </trkpt>
      <trkpt lat="45.96574" lon="3.49806">
        <ele>317</ele>
        <time>2022-10-01T07:37:00Z</time>
      </trkpt>
      <trkpt lat="45.96564" lon="3.49786">
        <ele>316</ele>
        <time>2022-10-01T07:37:23Z</time>
      </trkpt>
      <trkpt lat="45.96558" lon="3.49767">
        <ele>316</ele>
        <time>2022-10-01T07:37:42Z</time>
      </trkpt>
      <trkpt lat="45.96555" lon="3.49766">
        <ele>316</ele>
        <time>2022-10-01T07:37:46Z</time>
      </trkpt>
      <trkpt lat="45.96553" lon="3.4976">
        <ele>315</ele>
        <time>2022-10-01T07:37:52Z</time>
      </trkpt>
      <trkpt lat="45.96535" lon="3.49741">
        <ele>315</ele>
        <time>2022-10-01T07:38:22Z</time>
      </trkpt>
      <trkpt lat="45.96524" lon="3.49737">
        <ele>314</ele>
        <time>2022-10-01T07:38:37Z</time>
      </trkpt>
      <trkpt lat="45.96505" lon="3.49737">
        <ele>314</ele>
        <time>2022-10-01T07:39:03Z</time>
      </trkpt>
      <trkpt lat="45.96466" lon="3.49743">
        <ele>313</ele>
        <time>2022-10-01T07:39:55Z</time>
      </trkpt>
      <trkpt lat="45.9646" lon="3.49743">
        <ele>313</ele>
        <time>2022-10-01T07:40:03Z</time>
      </trkpt>
      <trkpt lat="45.96456" lon="3.49739">
        <ele>313</ele>
        <time>2022-10-01T07:40:10Z</time>
      </trkpt>
      <trkpt lat="45.96443" lon="3.49737">
        <ele>312</ele>
        <time>2022-10-01T07:40:27Z</time>
      </trkpt>
      <trkpt lat="45.96421" lon="3.49743">
        <ele>312</ele>
        <time>2022-10-01T07:40:57Z</time>
      </trkpt>
      <trkpt lat="45.96418" lon="3.4974">
        <ele>312</ele>
        <time>2022-10-01T07:41:02Z</time>
      </trkpt>
      <trkpt lat="45.96384" lon="3.4976">
        <ele>312</ele>
        <time>2022-10-01T07:41:51Z</time>
      </trkpt>
      <trkpt lat="45.96378" lon="3.49762">
        <ele>312</ele>
        <time>2022-10-01T07:41:59Z</time>
      </trkpt>
      <trkpt lat="45.96366" lon="3.49761">
        <ele>312</ele>
        <time>2022-10-01T07:42:15Z</time>
      </trkpt>
      <trkpt lat="45.96359" lon="3.49764">
        <ele>312</ele>
        <time>2022-10-01T07:42:25Z</time>
      </trkpt>
      <trkpt lat="45.96349" lon="3.49776">
        <ele>312</ele>
        <time>2022-10-01T07:42:42Z</time>
      </trkpt>
      <trkpt lat="45.96333" lon="3.49788">
        <ele>312</ele>
        <time>2022-10-01T07:43:06Z</time>
      </trkpt>
      <trkpt lat="45.96314" lon="3.49797">
        <ele>313</ele>
        <time>2022-10-01T07:43:33Z</time>
      </trkpt>
      <trkpt lat="45.96307" lon="3.49798">
        <ele>313</ele>
        <time>2022-10-01T07:43:42Z</time>
      </trkpt>
      <trkpt lat="45.96298" lon="3.49807">
        <ele>314</ele>
        <time>2022-10-01T07:43:57Z</time>
      </trkpt>
      <trkpt lat="45.96299" lon="3.49868">
        <ele>316</ele>
        <time>2022-10-01T07:44:54Z</time>
      </trkpt>
      <trkpt lat="45.96304" lon="3.49899">
        <ele>317</ele>
        <time>2022-10-01T07:45:23Z</time>
      </trkpt>
      <trkpt lat="45.96309" lon="3.49992">
        <ele>320</ele>
        <time>2022-10-01T07:46:50Z</time>
      </trkpt>
      <trkpt lat="45.96322" lon="3.50062">
        <ele>322</ele>
        <time>2022-10-01T07:47:57Z</time>
      </trkpt>
      <trkpt lat="45.96329" lon="3.50127">
        <ele>324</ele>
        <time>2022-10-01T07:48:58Z</time>
      </trkpt>
      <trkpt lat="45.96327" lon="3.5018">
        <ele>325</ele>
        <time>2022-10-01T07:49:47Z</time>
      </trkpt>
      <trkpt lat="45.96329" lon="3.50197">
        <ele>326</ele>
        <time>2022-10-01T07:50:03Z</time>
      </trkpt>
      <trkpt lat="45.96325" lon="3.50203">
        <ele>326</ele>
        <time>2022-10-01T07:50:11Z</time>
      </trkpt>
      <trkpt lat="45.96321" lon="3.50218">
        <ele>326</ele>
        <time>2022-10-01T07:50:26Z</time>
      </trkpt>
      <trkpt lat="45.96307" lon="3.50236">
        <ele>326</ele>
        <time>2022-10-01T07:50:51Z</time>
      </trkpt>
      <trkpt lat="45.96304" lon="3.50244">
        <ele>327</ele>
        <time>2022-10-01T07:50:59Z</time>
      </trkpt>
      <trkpt lat="45.96302" lon="3.50294">
        <ele>327</ele>
        <time>2022-10-01T07:51:46Z</time>
      </trkpt>
      <trkpt lat="45.96295" lon="3.50333">
        <ele>327</ele>
        <time>2022-10-01T07:52:23Z</time>
      </trkpt>
      <trkpt lat="45.96292" lon="3.50377">
        <ele>328</ele>
        <time>2022-10-01T07:53:04Z</time>
      </trkpt>
      <trkpt lat="45.96298" lon="3.50484">
        <ele>332</ele>
        <time>2022-10-01T07:54:44Z</time>
      </trkpt>
      <trkpt lat="45.96303" lon="3.50512">
        <ele>333</ele>
        <time>2022-10-01T07:55:10Z</time>
      </trkpt>
      <trkpt lat="45.963" lon="3.50538">
        <ele>333</ele>
        <time>2022-10-01T07:55:35Z</time>
      </trkpt>
      <trkpt lat="45.96306" lon="3.50579">
        <ele>335</ele>
        <time>2022-10-01T07:56:14Z</time>
      </trkpt>
      <trkpt lat="45.96303" lon="3.506">
        <ele>336</ele>
        <time>2022-10-01T07:56:34Z</time>
      </trkpt>
      <trkpt lat="45.96305" lon="3.50609">
        <ele>336</ele>
        <time>2022-10-01T07:56:42Z</time>
      </trkpt>
      <trkpt lat="45.96308" lon="3.50694">
        <ele>340</ele>
        <time>2022-10-01T07:58:01Z</time>
      </trkpt>
      <trkpt lat="45.96317" lon="3.50719">
        <ele>341</ele>
        <time>2022-10-01T07:58:27Z</time>
      </trkpt>
      <trkpt lat="45.96335" lon="3.50747">
        <ele>342</ele>
        <time>2022-10-01T07:59:03Z</time>
      </trkpt>
      <trkpt lat="45.96339" lon="3.50749">
        <ele>342</ele>
        <time>2022-10-01T07:59:08Z</time>
      </trkpt>
      <trkpt lat="45.96341" lon="3.50761">
        <ele>342</ele>
        <time>2022-10-01T07:59:20Z</time>
      </trkpt>
      <trkpt lat="45.9635" lon="3.50781">
        <ele>342</ele>
        <time>2022-10-01T07:59:42Z</time>
      </trkpt>
      <trkpt lat="45.96355" lon="3.50787">
        <ele>342</ele>
        <time>2022-10-01T07:59:51Z</time>
      </trkpt>
      <trkpt lat="45.96384" lon="3.50845">
        <ele>344</ele>
        <time>2022-10-01T08:00:57Z</time>
      </trkpt>
      <trkpt lat="45.96392" lon="3.50854">
        <ele>344</ele>
        <time>2022-10-01T08:01:10Z</time>
      </trkpt>
      <trkpt lat="45.96422" lon="3.50919">
        <ele>345</ele>
        <time>2022-10-01T08:02:23Z</time>
      </trkpt>
      <trkpt lat="45.96433" lon="3.50934">
        <ele>345</ele>
        <time>2022-10-01T08:02:43Z</time>
      </trkpt>
      <trkpt lat="45.96446" lon="3.50959">
        <ele>345</ele>
        <time>2022-10-01T08:03:12Z</time>
      </trkpt>
      <trkpt lat="45.9645" lon="3.50967">
        <ele>345</ele>
        <time>2022-10-01T08:03:21Z</time>
      </trkpt>
      <trkpt lat="45.9645" lon="3.50975">
        <ele>345</ele>
        <time>2022-10-01T08:03:29Z</time>
      </trkpt>
      <trkpt lat="45.96463" lon="3.50996">
        <ele>346</ele>
        <time>2022-10-01T08:03:55Z</time>
      </trkpt>
      <trkpt lat="45.96472" lon="3.50995">
        <ele>345</ele>
        <time>2022-10-01T08:04:07Z</time>
      </trkpt>
      <trkpt lat="45.96481" lon="3.50985">
        <ele>345</ele>
        <time>2022-10-01T08:04:22Z</time>
      </trkpt>
      <trkpt lat="45.96493" lon="3.50978">
        <ele>344</ele>
        <time>2022-10-01T08:04:39Z</time>
      </trkpt>
      <trkpt lat="45.96499" lon="3.50977">
        <ele>344</ele>
        <time>2022-10-01T08:04:47Z</time>
      </trkpt>
      <trkpt lat="45.96512" lon="3.50954">
        <ele>343</ele>
        <time>2022-10-01T08:05:15Z</time>
      </trkpt>
      <trkpt lat="45.96534" lon="3.50932">
        <ele>342</ele>
        <time>2022-10-01T08:05:50Z</time>
      </trkpt>
      <trkpt lat="45.96541" lon="3.50918">
        <ele>342</ele>
        <time>2022-10-01T08:06:06Z</time>
      </trkpt>
      <trkpt lat="45.96549" lon="3.50916">
        <ele>342</ele>
        <time>2022-10-01T08:06:17Z</time>
      </trkpt>
      <trkpt lat="45.96558" lon="3.50901">
        <ele>341</ele>
        <time>2022-10-01T08:06:36Z</time>
      </trkpt>
      <trkpt lat="45.96562" lon="3.509">
        <ele>341</ele>
        <time>2022-10-01T08:06:41Z</time>
      </trkpt>
      <trkpt lat="45.96571" lon="3.5089">
        <ele>340</ele>
        <time>2022-10-01T08:06:56Z</time>
      </trkpt>
      <trkpt lat="45.96591" lon="3.50862">
        <ele>338</ele>
        <time>2022-10-01T08:07:34Z</time>
      </trkpt>
      <trkpt lat="45.96605" lon="3.50853">
        <ele>338</ele>
        <time>2022-10-01T08:07:54Z</time>
      </trkpt>
      <trkpt lat="45.96614" lon="3.50855">
        <ele>338</ele>
        <time>2022-10-01T08:08:06Z</time>
      </trkpt>
      <trkpt lat="45.96631" lon="3.50864">
        <ele>340</ele>
        <time>2022-10-01T08:08:30Z</time>
      </trkpt>
      <trkpt lat="45.96651" lon="3.50887">
        <ele>342</ele>
        <time>2022-10-01T08:09:04Z</time>
      </trkpt>
      <trkpt lat="45.96656" lon="3.50901">
        <ele>343</ele>
        <time>2022-10-01T08:09:19Z</time>
      </trkpt>
      <trkpt lat="45.96659" lon="3.50954">
        <ele>345</ele>
        <time>2022-10-01T08:10:08Z</time>
      </trkpt>
      <trkpt lat="45.96658" lon="3.50972">
        <ele>345</ele>
        <time>2022-10-01T08:10:25Z</time>
      </trkpt>
      <trkpt lat="45.96663" lon="3.51021">
        <ele>346</ele>
        <time>2022-10-01T08:11:11Z</time>
      </trkpt>
      <trkpt lat="45.96661" lon="3.51074">
        <ele>345</ele>
        <time>2022-10-01T08:12:00Z</time>
      </trkpt>
      <trkpt lat="45.96658" lon="3.51088">
        <ele>345</ele>
        <time>2022-10-01T08:12:14Z</time>
      </trkpt>
      <trkpt lat="45.96662" lon="3.51155">
        <ele>347</ele>
        <time>2022-10-01T08:13:16Z</time>
      </trkpt>
      <trkpt lat="45.96659" lon="3.51192">
        <ele>348</ele>
        <time>2022-10-01T08:13:51Z</time>
      </trkpt>
      <trkpt lat="45.96661" lon="3.51209">
        <ele>349</ele>
        <time>2022-10-01T08:14:07Z</time>
      </trkpt>
      <trkpt lat="45.96659" lon="3.51218">
        <ele>349</ele>
        <time>2022-10-01T08:14:16Z</time>
      </trkpt>
      <trkpt lat="45.96666" lon="3.51261">
        <ele>350</ele>
        <time>2022-10-01T08:14:57Z</time>
      </trkpt>
      <trkpt lat="45.96665" lon="3.51278">
        <ele>349</ele>
        <time>2022-10-01T08:15:12Z</time>
      </trkpt>
      <trkpt lat="45.96668" lon="3.51292">
        <ele>349</ele>
        <time>2022-10-01T08:15:26Z</time>
      </trkpt>
      <trkpt lat="45.96672" lon="3.51355">
        <ele>346</ele>
        <time>2022-10-01T08:16:25Z</time>
      </trkpt>
      <trkpt lat="45.96684" lon="3.51374">
        <ele>347</ele>
        <time>2022-10-01T08:16:48Z</time>
      </trkpt>
      <trkpt lat="45.96697" lon="3.51382">
        <ele>348</ele>
        <time>2022-10-01T08:17:07Z</time>
      </trkpt>
      <trkpt lat="45.96711" lon="3.51406">
        <ele>349</ele>
        <time>2022-10-01T08:17:36Z</time>
      </trkpt>
      <trkpt lat="45.96729" lon="3.51425">
        <ele>351</ele>
        <time>2022-10-01T08:18:06Z</time>
      </trkpt>
      <trkpt lat="45.96739" lon="3.51443">
        <ele>352</ele>
        <time>2022-10-01T08:18:28Z</time>
      </trkpt>
      <trkpt lat="45.96769" lon="3.51473">
        <ele>354</ele>
        <time>2022-10-01T08:19:16Z</time>
      </trkpt>
      <trkpt lat="45.96804" lon="3.51517">
        <ele>356</ele>
        <time>2022-10-01T08:20:18Z</time>
      </trkpt>
      <trkpt lat="45.96812" lon="3.51523">
        <ele>357</ele>
        <time>2022-10-01T08:20:30Z</time>
      </trkpt>
      <trkpt lat="45.96818" lon="3.51538">
        <ele>358</ele>
        <time>2022-10-01T08:20:46Z</time>
      </trkpt>
      <trkpt lat="45.96828" lon="3.51546">
        <ele>359</ele>
        <time>2022-10-01T08:21:02Z</time>
      </trkpt>
      <trkpt lat="45.96846" lon="3.5157">
        <ele>361</ele>
        <time>2022-10-01T08:21:34Z</time>
      </trkpt>
      <trkpt lat="45.9685" lon="3.5157">
        <ele>362</ele>
        <time>2022-10-01T08:21:40Z</time>
      </trkpt>
      <trkpt lat="45.96868" lon="3.5159">
        <ele>364</ele>
        <time>2022-10-01T08:22:10Z</time>
      </trkpt>
      <trkpt lat="45.96886" lon="3.51613">
        <ele>367</ele>
        <time>2022-10-01T08:22:42Z</time>
      </trkpt>
      <trkpt lat="45.96896" lon="3.51637">
        <ele>369</ele>
        <time>2022-10-01T08:23:08Z</time>
      </trkpt>
      <trkpt lat="45.96906" lon="3.51645">
        <ele>370</ele>
        <time>2022-10-01T08:23:24Z</time>
      </trkpt>
      <trkpt lat="45.96912" lon="3.51656">
        <ele>371</ele>
        <time>2022-10-01T08:23:36Z</time>
      </trkpt>
      <trkpt lat="45.96928" lon="3.51673">
        <ele>372</ele>
        <time>2022-10-01T08:24:03Z</time>
      </trkpt>
      <trkpt lat="45.96934" lon="3.51686">
        <ele>373</ele>
        <time>2022-10-01T08:24:17Z</time>
      </trkpt>
      <trkpt lat="45.96948" lon="3.51692">
        <ele>373</ele>
        <time>2022-10-01T08:24:37Z</time>
      </trkpt>
      <trkpt lat="45.96952" lon="3.51707">
        <ele>374</ele>
        <time>2022-10-01T08:24:52Z</time>
      </trkpt>
      <trkpt lat="45.96957" lon="3.51715">
        <ele>374</ele>
        <time>2022-10-01T08:25:02Z</time>
      </trkpt>
      <trkpt lat="45.96999" lon="3.51747">
        <ele>374</ele>
        <time>2022-10-01T08:26:05Z</time>
      </trkpt>
      <trkpt lat="45.97021" lon="3.51752">
        <ele>372</ele>
        <time>2022-10-01T08:26:35Z</time>
      </trkpt>
      <trkpt lat="45.97032" lon="3.51752">
        <ele>372</ele>
        <time>2022-10-01T08:26:50Z</time>
      </trkpt>
      <trkpt lat="45.97041" lon="3.51747">
        <ele>371</ele>
        <time>2022-10-01T08:27:03Z</time>
      </trkpt>
      <trkpt lat="45.97094" lon="3.51697">
        <ele>369</ele>
        <time>2022-10-01T08:28:27Z</time>
      </trkpt>
      <trkpt lat="45.97187" lon="3.51593">
        <ele>374</ele>
        <time>2022-10-01T08:31:04Z</time>
      </trkpt>
      <trkpt lat="45.972" lon="3.51583">
        <ele>375</ele>
        <time>2022-10-01T08:31:24Z</time>
      </trkpt>
      <trkpt lat="45.9721" lon="3.51567">
        <ele>375</ele>
        <time>2022-10-01T08:31:44Z</time>
      </trkpt>
      <trkpt lat="45.9722" lon="3.5156">
        <ele>375</ele>
        <time>2022-10-01T08:31:59Z</time>
      </trkpt>
      <trkpt lat="45.97241" lon="3.51538">
        <ele>375</ele>
        <time>2022-10-01T08:32:33Z</time>
      </trkpt>
      <trkpt lat="45.97252" lon="3.51522">
        <ele>375</ele>
        <time>2022-10-01T08:32:54Z</time>
      </trkpt>
      <trkpt lat="45.97262" lon="3.51498">
        <ele>375</ele>
        <time>2022-10-01T08:33:20Z</time>
      </trkpt>
      <trkpt lat="45.97272" lon="3.51487">
        <ele>375</ele>
        <time>2022-10-01T08:33:37Z</time>
      </trkpt>
      <trkpt lat="45.97274" lon="3.51481">
        <ele>375</ele>
        <time>2022-10-01T08:33:43Z</time>
      </trkpt>
      <trkpt lat="45.97279" lon="3.51477">
        <ele>376</ele>
        <time>2022-10-01T08:33:51Z</time>
      </trkpt>
      <trkpt lat="45.97283" lon="3.51477">
        <ele>376</ele>
        <time>2022-10-01T08:33:56Z</time>
      </trkpt>
      <trkpt lat="45.97287" lon="3.51472">
        <ele>376</ele>
        <time>2022-10-01T08:34:03Z</time>
      </trkpt>
      <trkpt lat="45.97294" lon="3.51456">
        <ele>376</ele>
        <time>2022-10-01T08:34:21Z</time>
      </trkpt>
      <trkpt lat="45.97302" lon="3.51446">
        <ele>376</ele>
        <time>2022-10-01T08:34:35Z</time>
      </trkpt>
      <trkpt lat="45.97324" lon="3.51401">
        <ele>375</ele>
        <time>2022-10-01T08:35:26Z</time>
      </trkpt>
      <trkpt lat="45.97337" lon="3.51366">
        <ele>374</ele>
        <time>2022-10-01T08:36:03Z</time>
      </trkpt>
      <trkpt lat="45.97351" lon="3.51345">
        <ele>373</ele>
        <time>2022-10-01T08:36:30Z</time>
      </trkpt>
      <trkpt lat="45.97355" lon="3.51343">
        <ele>373</ele>
        <time>2022-10-01T08:36:35Z</time>
      </trkpt>
      <trkpt lat="45.97365" lon="3.51322">
        <ele>373</ele>
        <time>2022-10-01T08:36:59Z</time>
      </trkpt>
      <trkpt lat="45.9737" lon="3.51317">
        <ele>373</ele>
        <time>2022-10-01T08:37:07Z</time>
      </trkpt>
      <trkpt lat="45.97415" lon="3.51229">
        <ele>376</ele>
        <time>2022-10-01T08:38:48Z</time>
      </trkpt>
      <trkpt lat="45.97439" lon="3.51176">
        <ele>375</ele>
        <time>2022-10-01T08:39:47Z</time>
      </trkpt>
      <trkpt lat="45.97459" lon="3.51144">
        <ele>373</ele>
        <time>2022-10-01T08:40:27Z</time>
      </trkpt>
      <trkpt lat="45.97478" lon="3.51105">
        <ele>372</ele>
        <time>2022-10-01T08:41:11Z</time>
      </trkpt>
      <trkpt lat="45.9748" lon="3.51104">
        <ele>372</ele>
        <time>2022-10-01T08:41:14Z</time>
      </trkpt>
      <trkpt lat="45.97488" lon="3.51114">
        <ele>372</ele>
        <time>2022-10-01T08:41:28Z</time>
      </trkpt>
      <trkpt lat="45.97496" lon="3.51132">
        <ele>372</ele>
        <time>2022-10-01T08:41:48Z</time>
      </trkpt>
      <trkpt lat="45.97519" lon="3.51159">
        <ele>371</ele>
        <time>2022-10-01T08:42:28Z</time>
      </trkpt>
      <trkpt lat="45.97549" lon="3.51186">
        <ele>369</ele>
        <time>2022-10-01T08:43:15Z</time>
      </trkpt>
      <trkpt lat="45.97561" lon="3.51209">
        <ele>368</ele>
        <time>2022-10-01T08:43:42Z</time>
      </trkpt>
      <trkpt lat="45.9758" lon="3.51232">
        <ele>366</ele>
        <time>2022-10-01T08:44:15Z</time>
      </trkpt>
      <trkpt lat="45.97583" lon="3.51243">
        <ele>366</ele>
        <time>2022-10-01T08:44:26Z</time>
      </trkpt>
      <trkpt lat="45.97598" lon="3.51258">
        <ele>365</ele>
        <time>2022-10-01T08:44:50Z</time>
      </trkpt>
      <trkpt lat="45.97612" lon="3.51279">
        <ele>365</ele>
        <time>2022-10-01T08:45:17Z</time>
      </trkpt>
      <trkpt lat="45.97621" lon="3.51283">
        <ele>364</ele>
        <time>2022-10-01T08:45:30Z</time>
      </trkpt>
      <trkpt lat="45.97645" lon="3.51283">
        <ele>362</ele>
        <time>2022-10-01T08:46:02Z</time>
      </trkpt>
      <trkpt lat="45.97663" lon="3.51279">
        <ele>360</ele>
        <time>2022-10-01T08:46:26Z</time>
      </trkpt>
      <trkpt lat="45.9767" lon="3.51281">
        <ele>360</ele>
        <time>2022-10-01T08:46:35Z</time>
      </trkpt>
      <trkpt lat="45.97678" lon="3.51277">
        <ele>359</ele>
        <time>2022-10-01T08:46:47Z</time>
      </trkpt>
      <trkpt lat="45.97684" lon="3.51278">
        <ele>358</ele>
        <time>2022-10-01T08:46:55Z</time>
      </trkpt>
      <trkpt lat="45.97687" lon="3.51276">
        <ele>358</ele>
        <time>2022-10-01T08:46:59Z</time>
      </trkpt>
      <trkpt lat="45.97693" lon="3.51277">
        <ele>357</ele>
        <time>2022-10-01T08:47:07Z</time>
      </trkpt>
      <trkpt lat="45.97698" lon="3.51281">
        <ele>357</ele>
        <time>2022-10-01T08:47:15Z</time>
      </trkpt>
      <trkpt lat="45.9771" lon="3.51281">
        <ele>356</ele>
        <time>2022-10-01T08:47:31Z</time>
      </trkpt>
      <trkpt lat="45.97713" lon="3.51279">
        <ele>355</ele>
        <time>2022-10-01T08:47:35Z</time>
      </trkpt>
      <trkpt lat="45.97717" lon="3.51282">
        <ele>355</ele>
        <time>2022-10-01T08:47:41Z</time>
      </trkpt>
      <trkpt lat="45.97727" lon="3.51282">
        <ele>354</ele>
        <time>2022-10-01T08:47:55Z</time>
      </trkpt>
      <trkpt lat="45.97738" lon="3.51299">
        <ele>353</ele>
        <time>2022-10-01T08:48:16Z</time>
      </trkpt>
      <trkpt lat="45.97737" lon="3.51327">
        <ele>353</ele>
        <time>2022-10-01T08:48:42Z</time>
      </trkpt>
      <trkpt lat="45.9774" lon="3.51334">
        <ele>352</ele>
        <time>2022-10-01T08:48:50Z</time>
      </trkpt>
      <trkpt lat="45.97755" lon="3.51345">
        <ele>350</ele>
        <time>2022-10-01T08:49:12Z</time>
      </trkpt>
      <trkpt lat="45.97759" lon="3.51355">
        <ele>350</ele>
        <time>2022-10-01T08:49:23Z</time>
      </trkpt>
      <trkpt lat="45.97759" lon="3.51366">
        <ele>350</ele>
        <time>2022-10-01T08:49:33Z</time>
      </trkpt>
      <trkpt lat="45.97755" lon="3.51384">
        <ele>351</ele>
        <time>2022-10-01T08:49:51Z</time>
      </trkpt>
      <trkpt lat="45.97756" lon="3.5144">
        <ele>350</ele>
        <time>2022-10-01T08:50:43Z</time>
      </trkpt>
      <trkpt lat="45.97754" lon="3.51447">
        <ele>350</ele>
        <time>2022-10-01T08:50:50Z</time>
      </trkpt>
      <trkpt lat="45.97754" lon="3.5147">
        <ele>349</ele>
        <time>2022-10-01T08:51:11Z</time>
      </trkpt>
      <trkpt lat="45.97749" lon="3.51491">
        <ele>349</ele>
        <time>2022-10-01T08:51:32Z</time>
      </trkpt>
      <trkpt lat="45.9775" lon="3.51512">
        <ele>348</ele>
        <time>2022-10-01T08:51:51Z</time>
      </trkpt>
      <trkpt lat="45.97748" lon="3.51516">
        <ele>348</ele>
        <time>2022-10-01T08:51:56Z</time>
      </trkpt>
      <trkpt lat="45.97749" lon="3.51547">
        <ele>348</ele>
        <time>2022-10-01T08:52:24Z</time>
      </trkpt>
      <trkpt lat="45.97747" lon="3.51566">
        <ele>348</ele>
        <time>2022-10-01T08:52:42Z</time>
      </trkpt>
      <trkpt lat="45.97719" lon="3.51651">
        <ele>351</ele>
        <time>2022-10-01T08:54:10Z</time>
      </trkpt>
      <trkpt lat="45.97714" lon="3.51688">
        <ele>349</ele>
        <time>2022-10-01T08:54:45Z</time>
      </trkpt>
      <trkpt lat="45.97707" lon="3.51708">
        <ele>348</ele>
        <time>2022-10-01T08:55:05Z</time>
      </trkpt>
      <trkpt lat="45.97703" lon="3.51742">
        <ele>345</ele>
        <time>2022-10-01T08:55:37Z</time>
      </trkpt>
      <trkpt lat="45.97696" lon="3.51762">
        <ele>344</ele>
        <time>2022-10-01T08:55:58Z</time>
      </trkpt>
      <trkpt lat="45.97686" lon="3.51807">
        <ele>339</ele>
        <time>2022-10-01T08:56:42Z</time>
      </trkpt>
      <trkpt lat="45.97675" lon="3.5184">
        <ele>336</ele>
        <time>2022-10-01T08:57:16Z</time>
      </trkpt>
      <trkpt lat="45.9767" lon="3.51846">
        <ele>336</ele>
        <time>2022-10-01T08:57:24Z</time>
      </trkpt>
      <trkpt lat="45.97638" lon="3.51868">
        <ele>332</ele>
        <time>2022-10-01T08:58:12Z</time>
      </trkpt>
      <trkpt lat="45.97637" lon="3.51876">
        <ele>330</ele>
        <time>2022-10-01T08:58:19Z</time>
      </trkpt>
      <trkpt lat="45.97627" lon="3.51874">
        <ele>331</ele>
        <time>2022-10-01T08:58:33Z</time>
      </trkpt>
      <trkpt lat="45.97625" lon="3.51901">
        <ele>325</ele>
        <time>2022-10-01T08:58:58Z</time>
      </trkpt>
      <trkpt lat="45.97606" lon="3.519">
        <ele>325</ele>
        <time>2022-10-01T08:59:23Z</time>
      </trkpt>
      <trkpt lat="45.97594" lon="3.51908">
        <ele>324</ele>
        <time>2022-10-01T08:59:41Z</time>
      </trkpt>
      <trkpt lat="45.97593" lon="3.51913">
        <ele>323</ele>
        <time>2022-10-01T08:59:46Z</time>
      </trkpt>
      <trkpt lat="45.97602" lon="3.51936">
        <ele>321</ele>
        <time>2022-10-01T09:00:10Z</time>
      </trkpt>
      <trkpt lat="45.97606" lon="3.5194">
        <ele>321</ele>
        <time>2022-10-01T09:00:17Z</time>
      </trkpt>
      <trkpt lat="45.97607" lon="3.51975">
        <ele>321</ele>
        <time>2022-10-01T09:00:49Z</time>
      </trkpt>
      <trkpt lat="45.9763" lon="3.51976">
        <ele>319</ele>
        <time>2022-10-01T09:01:20Z</time>
      </trkpt>
      <trkpt lat="45.97649" lon="3.51994">
        <ele>317</ele>
        <time>2022-10-01T09:01:50Z</time>
      </trkpt>
      <trkpt lat="45.97645" lon="3.51999">
        <ele>317</ele>
        <time>2022-10-01T09:01:57Z</time>
      </trkpt>
      <trkpt lat="45.97653" lon="3.52008">
        <ele>316</ele>
        <time>2022-10-01T09:02:11Z</time>
      </trkpt>
      <trkpt lat="45.97663" lon="3.52015">
        <ele>315</ele>
        <time>2022-10-01T09:02:26Z</time>
      </trkpt>
      <trkpt lat="45.97674" lon="3.52016">
        <ele>315</ele>
        <time>2022-10-01T09:02:41Z</time>
      </trkpt>
      <trkpt lat="45.97672" lon="3.52052">
        <ele>315</ele>
        <time>2022-10-01T09:03:14Z</time>
      </trkpt>
      <trkpt lat="45.97661" lon="3.52082">
        <ele>316</ele>
        <time>2022-10-01T09:03:45Z</time>
      </trkpt>
      <trkpt lat="45.97639" lon="3.52122">
        <ele>320</ele>
        <time>2022-10-01T09:04:33Z</time>
      </trkpt>
      <trkpt lat="45.97634" lon="3.52139">
        <ele>321</ele>
        <time>2022-10-01T09:04:50Z</time>
      </trkpt>
      <trkpt lat="45.97635" lon="3.52151">
        <ele>321</ele>
        <time>2022-10-01T09:05:01Z</time>
      </trkpt>
      <trkpt lat="45.97638" lon="3.52156">
        <ele>320</ele>
        <time>2022-10-01T09:05:07Z</time>
      </trkpt>
      <trkpt lat="45.97649" lon="3.52162">
        <ele>318</ele>
        <time>2022-10-01T09:05:23Z</time>
      </trkpt>
      <trkpt lat="45.97658" lon="3.52154">
        <ele>317</ele>
        <time>2022-10-01T09:05:37Z</time>
      </trkpt>
    </trkseg>
  </trk>
</gpx>